createdAt,value
2022-12-13T00:04:28.334Z,90.39
2022-12-13T00:10:43.137Z,90.27
2022-12-13T00:20:18.687Z,89.49
2022-12-13T00:23:22.493Z,89.86
2022-12-13T00:29:19.165Z,89.62
2022-12-13T00:32:00.688Z,89.49
2022-12-13T00:41:05.893Z,89.70
2022-12-13T00:43:58.182Z,89.86
2022-12-13T00:46:42.257Z,89.87
2022-12-13T00:49:36.976Z,89.46
2022-12-13T00:52:19.416Z,89.69
2022-12-13T00:55:07.167Z,89.44
2022-12-13T01:01:03.303Z,89.71
2022-12-13T01:04:06.356Z,89.73
2022-12-13T01:06:57.629Z,89.75
2022-12-13T01:12:56.454Z,89.73
2022-12-13T01:16:00.170Z,89.55
2022-12-13T01:18:50.777Z,89.94
2022-12-13T01:21:51.889Z,89.51
2022-12-13T01:27:14.793Z,89.58
2022-12-13T01:30:14.874Z,89.45
2022-12-13T01:33:14.279Z,90.08
2022-12-13T01:35:44.007Z,89.71
2022-12-13T01:38:26.222Z,89.62
2022-12-13T01:41:01.877Z,89.00
2022-12-13T01:44:31.526Z,89.49
2022-12-13T01:50:30.921Z,89.80
2022-12-13T01:53:09.412Z,89.50
2022-12-13T01:55:52.470Z,89.75
2022-12-13T02:01:36.911Z,89.62
2022-12-13T02:04:10.377Z,89.53
2022-12-13T02:07:01.112Z,89.88
2022-12-13T02:09:40.389Z,90.10
2022-12-13T02:12:14.444Z,90.53
2022-12-13T02:14:51.017Z,89.91
2022-12-13T02:17:36.107Z,89.94
2022-12-13T02:20:54.336Z,89.90
2022-12-13T02:24:15.194Z,89.72
2022-12-13T02:27:30.635Z,89.82
2022-12-13T02:30:39.043Z,90.63
2022-12-13T02:33:32.400Z,89.94
2022-12-13T02:36:19.684Z,89.99
2022-12-13T02:38:54.791Z,89.97
2022-12-13T02:41:33.049Z,89.33
2022-12-13T02:44:22.253Z,90.13
2022-12-13T02:47:00.856Z,89.65
2022-12-13T02:49:39.819Z,89.44
2022-12-13T02:52:22.344Z,90.00
2022-12-13T02:55:08.121Z,89.85
2022-12-13T02:57:50.756Z,89.58
2022-12-13T03:00:32.350Z,89.96
2022-12-13T03:03:21.275Z,89.58
2022-12-13T03:06:01.041Z,90.08
2022-12-13T03:08:47.621Z,89.37
2022-12-13T03:11:30.482Z,89.30
2022-12-13T03:14:11.743Z,90.05
2022-12-13T03:16:44.041Z,89.85
2022-12-13T03:19:14.105Z,89.82
2022-12-13T03:22:05.531Z,89.87
2022-12-13T03:24:34.683Z,89.98
2022-12-13T03:27:09.864Z,89.53
2022-12-13T03:29:39.558Z,89.86
2022-12-13T03:32:06.410Z,89.59
2022-12-13T03:35:00.645Z,89.70
2022-12-13T03:37:37.785Z,90.04
2022-12-13T03:40:30.751Z,89.22
2022-12-13T03:43:13.455Z,89.98
2022-12-13T03:45:49.686Z,89.85
2022-12-13T03:48:23.917Z,88.94
2022-12-13T03:50:56.827Z,89.64
2022-12-13T03:53:33.242Z,89.31
2022-12-13T03:56:09.428Z,89.82
2022-12-13T03:58:38.558Z,89.74
2022-12-13T04:01:15.432Z,89.75
2022-12-13T04:03:47.016Z,89.58
2022-12-13T04:06:33.060Z,90.13
2022-12-13T04:09:00.460Z,90.07
2022-12-13T04:11:35.412Z,90.17
2022-12-13T04:14:02.490Z,89.93
2022-12-13T04:16:38.734Z,89.41
2022-12-13T04:19:13.681Z,89.73
2022-12-13T04:21:44.097Z,89.10
2022-12-13T04:24:16.555Z,89.43
2022-12-13T04:26:50.404Z,89.40
2022-12-13T04:32:26.772Z,89.67
2022-12-13T04:35:00.859Z,89.46
2022-12-13T04:37:46.934Z,89.12
2022-12-13T04:40:25.905Z,89.48
2022-12-13T04:42:54.279Z,89.36
2022-12-13T04:45:22.175Z,89.61
2022-12-13T04:47:48.969Z,89.62
2022-12-13T04:50:21.991Z,89.50
2022-12-13T04:53:00.309Z,89.23
2022-12-13T04:55:27.948Z,89.89
2022-12-13T04:58:01.196Z,89.72
2022-12-13T05:00:30.599Z,89.91
2022-12-13T05:02:59.218Z,89.78
2022-12-13T05:05:28.761Z,89.37
2022-12-13T05:08:03.210Z,89.35
2022-12-13T05:10:37.775Z,89.57
2022-12-13T05:13:08.232Z,89.38
2022-12-13T05:15:35.112Z,90.12
2022-12-13T05:18:10.129Z,89.88
2022-12-13T05:20:41.540Z,89.82
2022-12-13T05:23:09.852Z,89.42
2022-12-13T05:25:36.807Z,90.18
2022-12-13T05:28:28.640Z,90.36
2022-12-13T05:30:51.300Z,89.75
2022-12-13T05:33:18.446Z,89.98
2022-12-13T05:35:45.490Z,89.59
2022-12-13T05:38:13.768Z,89.49
2022-12-13T05:40:40.963Z,89.50
2022-12-13T05:43:21.822Z,89.58
2022-12-13T05:45:49.172Z,89.71
2022-12-13T05:48:24.652Z,89.82
2022-12-13T05:51:11.185Z,90.37
2022-12-13T05:53:42.558Z,89.73
2022-12-13T05:56:14.579Z,89.92
2022-12-13T05:58:53.496Z,89.58
2022-12-13T06:01:20.863Z,89.67
2022-12-13T06:03:53.774Z,89.46
2022-12-13T06:06:23.119Z,89.80
2022-12-13T06:08:51.453Z,89.21
2022-12-13T06:11:31.126Z,89.43
2022-12-13T06:14:00.640Z,89.68
2022-12-13T06:16:28.721Z,88.90
2022-12-13T06:19:04.146Z,89.54
2022-12-13T06:21:41.788Z,89.86
2022-12-13T06:24:24.031Z,89.25
2022-12-13T06:26:51.723Z,89.78
2022-12-13T06:29:23.149Z,90.22
2022-12-13T06:32:03.087Z,90.01
2022-12-13T06:34:32.850Z,89.97
2022-12-13T06:37:01.046Z,89.42
2022-12-13T06:39:32.996Z,89.72
2022-12-13T06:42:01.246Z,90.27
2022-12-13T06:44:28.245Z,90.41
2022-12-13T06:47:11.914Z,89.72
2022-12-13T06:49:41.543Z,89.52
2022-12-13T06:52:13.457Z,90.18
2022-12-13T06:54:42.088Z,90.27
2022-12-13T06:57:10.907Z,90.06
2022-12-13T06:59:37.797Z,89.63
2022-12-13T07:02:04.894Z,89.35
2022-12-13T07:04:35.010Z,89.71
2022-12-13T07:07:25.108Z,89.53
2022-12-13T07:09:56.416Z,89.95
2022-12-13T07:12:36.040Z,89.45
2022-12-13T07:15:16.193Z,90.07
2022-12-13T07:17:51.965Z,89.77
2022-12-13T07:20:44.462Z,90.02
2022-12-13T07:23:15.537Z,89.90
2022-12-13T07:25:51.221Z,89.86
2022-12-13T07:28:18.149Z,90.05
2022-12-13T07:30:44.912Z,89.72
2022-12-13T07:33:11.721Z,89.46
2022-12-13T07:35:55.509Z,89.48
2022-12-13T07:38:22.816Z,90.17
2022-12-13T07:41:59.836Z,89.75
2022-12-13T07:44:59.670Z,89.71
2022-12-13T07:50:37.370Z,90.14
2022-12-13T07:53:05.727Z,90.18
2022-12-13T07:55:42.367Z,89.75
2022-12-13T07:58:21.672Z,89.97
2022-12-13T08:00:51.432Z,89.65
2022-12-13T08:03:24.640Z,89.60
2022-12-13T08:05:59.055Z,90.16
2022-12-13T08:08:49.640Z,89.82
2022-12-13T08:11:23.920Z,90.02
2022-12-13T08:13:58.734Z,90.00
2022-12-13T08:16:34.099Z,90.66
2022-12-13T08:19:08.989Z,89.96
2022-12-13T08:25:07.722Z,90.13
2022-12-13T08:27:45.444Z,90.77
2022-12-13T08:30:18.915Z,90.33
2022-12-13T08:34:24.391Z,90.65
2022-12-13T08:39:52.693Z,91.94
2022-12-13T08:42:36.098Z,91.22
2022-12-13T08:45:52.085Z,91.08
2022-12-13T08:48:23.182Z,91.68
2022-12-13T08:54:31.024Z,92.51
2022-12-13T08:57:20.474Z,92.06
2022-12-13T09:00:11.957Z,92.46
2022-12-13T09:14:52.958Z,92.39
2022-12-13T09:17:08.993Z,92.95
2022-12-13T09:21:11.296Z,92.78
2022-12-13T09:23:45.727Z,92.55
2022-12-13T09:26:27.101Z,92.89
2022-12-13T09:35:50.133Z,93.69
2022-12-13T09:38:20.496Z,93.82
2022-12-13T09:40:58.300Z,93.66
2022-12-13T09:44:04.003Z,93.23
2022-12-13T09:49:52.584Z,94.01
2022-12-13T09:55:30.693Z,93.88
2022-12-13T10:05:48.989Z,94.03
2022-12-13T10:08:32.296Z,94.55
2022-12-13T10:11:14.020Z,94.07
2022-12-13T10:14:11.491Z,94.19
2022-12-13T10:17:15.643Z,93.60
2022-12-13T10:19:52.164Z,94.15
2022-12-13T10:22:41.853Z,93.96
2022-12-13T10:25:45.118Z,94.07
2022-12-13T10:28:14.442Z,94.23
2022-12-13T10:30:52.594Z,94.01
2022-12-13T10:33:24.386Z,93.95
2022-12-13T10:36:09.866Z,93.96
2022-12-13T10:38:38.981Z,94.31
2022-12-13T10:41:26.902Z,94.28
2022-12-13T10:44:18.494Z,94.72
2022-12-13T10:46:52.885Z,94.26
2022-12-13T10:49:22.622Z,94.37
2022-12-13T10:51:50.201Z,94.33
2022-12-13T10:54:27.811Z,94.34
2022-12-13T10:56:57.843Z,94.44
2022-12-13T10:59:30.203Z,94.29
2022-12-13T11:01:57.102Z,94.43
2022-12-13T11:04:30.155Z,95.03
2022-12-13T11:06:58.480Z,94.40
2022-12-13T11:09:29.039Z,94.50
2022-12-13T11:12:14.901Z,94.96
2022-12-13T11:14:55.824Z,94.97
2022-12-13T11:17:30.147Z,94.58
2022-12-13T11:20:00.380Z,94.91
2022-12-13T11:22:37.978Z,94.69
2022-12-13T11:25:31.279Z,94.92
2022-12-13T11:28:26.864Z,95.11
2022-12-13T11:31:07.876Z,95.15
2022-12-13T11:33:48.395Z,95.04
2022-12-13T11:36:30.331Z,95.54
2022-12-13T11:43:04.840Z,95.47
2022-12-13T11:46:32.337Z,94.99
2022-12-13T11:52:45.559Z,95.32
2022-12-13T12:13:50.786Z,100.00
2022-12-13T12:34:56.816Z,78.49
2022-12-13T12:44:34.056Z,86.62
2022-12-13T14:10:36.771Z,80.97
2022-12-13T14:17:14.851Z,81.06
2022-12-13T14:20:15.794Z,80.77
2022-12-13T14:22:50.956Z,80.79
2022-12-13T14:25:55.366Z,81.13
2022-12-13T14:28:35.320Z,81.85
2022-12-13T14:31:03.921Z,81.37
2022-12-13T14:33:39.232Z,81.54
2022-12-13T14:36:18.739Z,81.30
2022-12-13T14:38:45.755Z,81.77
2022-12-13T14:41:17.901Z,81.40
2022-12-13T14:43:50.229Z,81.21
2022-12-13T14:46:54.101Z,81.66
2022-12-13T14:49:22.274Z,81.40
2022-12-13T14:51:56.554Z,81.65
2022-12-13T14:54:45.468Z,80.92
2022-12-13T15:02:39.208Z,81.62
2022-12-13T15:04:16.895Z,81.01
2022-12-13T15:09:38.276Z,81.31
2022-12-13T15:12:23.857Z,81.87
2022-12-13T15:14:57.638Z,82.09
2022-12-13T15:17:33.874Z,82.41
2022-12-13T15:20:27.151Z,82.28
2022-12-13T15:24:01.046Z,82.57
2022-12-13T15:36:28.514Z,82.70
2022-12-13T15:39:01.367Z,82.85
2022-12-13T15:41:31.475Z,82.27
2022-12-13T15:47:06.420Z,82.20
2022-12-13T15:49:44.333Z,82.59
2022-12-13T15:52:26.394Z,82.23
2022-12-13T15:54:57.815Z,82.29
2022-12-13T15:57:41.493Z,82.12
2022-12-13T16:00:31.666Z,82.37
2022-12-13T16:03:11.641Z,82.93
2022-12-13T16:06:33.090Z,82.91
2022-12-13T16:09:05.144Z,82.41
2022-12-13T16:11:38.426Z,82.69
2022-12-13T16:15:09.298Z,82.77
2022-12-13T17:05:26.924Z,83.72
2022-12-13T17:49:22.201Z,84.78
2022-12-13T18:04:54.869Z,84.99
2022-12-13T18:22:59.340Z,85.23
2022-12-13T18:29:55.412Z,84.73
2022-12-13T18:31:59.181Z,85.09
2022-12-13T18:58:48.661Z,85.19
2022-12-13T19:12:27.537Z,85.41
2022-12-13T19:22:47.338Z,85.77
2022-12-13T19:43:57.818Z,85.63
2022-12-13T19:50:24.693Z,85.45
2022-12-13T19:53:01.723Z,85.66
2022-12-13T19:55:54.946Z,85.57
2022-12-13T20:01:35.440Z,85.62
2022-12-13T20:04:27.142Z,85.22
2022-12-13T20:07:28.639Z,85.46
2022-12-13T20:10:19.079Z,85.33
2022-12-13T20:12:52.762Z,85.10
2022-12-13T20:15:19.957Z,85.69
2022-12-13T20:18:14.834Z,85.24
2022-12-13T20:21:12.984Z,85.63
2022-12-13T20:26:42.006Z,85.33
2022-12-13T20:29:14.223Z,85.59
2022-12-13T20:31:55.526Z,86.07
2022-12-13T20:34:28.338Z,85.67
2022-12-13T20:36:58.161Z,85.33
2022-12-13T20:39:34.669Z,85.54
2022-12-13T20:42:16.106Z,85.26
2022-12-13T20:44:43.279Z,85.64
2022-12-13T20:47:17.023Z,85.35
2022-12-13T20:49:49.496Z,85.99
2022-12-13T20:52:19.727Z,85.76
2022-12-13T20:54:50.865Z,85.94
2022-12-13T20:57:25.496Z,86.07
2022-12-13T20:59:55.268Z,85.75
2022-12-13T21:02:33.420Z,85.96
2022-12-13T21:05:07.617Z,86.17
2022-12-13T21:07:42.401Z,86.31
2022-12-13T21:27:15.466Z,86.22
2022-12-13T21:33:27.886Z,86.06
2022-12-13T21:37:31.202Z,86.22
2022-12-13T21:40:33.649Z,86.60
2022-12-13T21:43:39.219Z,86.41
2022-12-13T21:49:31.132Z,85.81
2022-12-13T21:52:49.797Z,86.43
2022-12-13T21:56:02.250Z,86.45
2022-12-13T21:59:02.374Z,86.26
2022-12-13T22:02:08.771Z,86.68
2022-12-13T22:05:19.164Z,86.31
2022-12-13T22:08:35.053Z,86.58
2022-12-13T22:11:48.493Z,86.63
2022-12-13T22:17:47.108Z,86.61
2022-12-13T22:20:29.910Z,86.20
2022-12-13T22:29:39.002Z,86.30
2022-12-13T22:36:17.116Z,86.44
2022-12-13T22:39:32.774Z,86.66
2022-12-13T22:42:55.790Z,86.69
2022-12-13T22:45:48.722Z,86.97
2022-12-13T22:51:30.242Z,86.40
2022-12-13T22:54:35.256Z,87.15
2022-12-13T22:57:07.669Z,86.79
2022-12-13T22:59:57.292Z,87.18
2022-12-13T23:02:40.109Z,87.09
2022-12-13T23:05:29.196Z,86.66
2022-12-13T23:08:13.953Z,87.11
2022-12-13T23:11:08.979Z,86.87
2022-12-13T23:16:52.666Z,87.15
2022-12-13T23:20:03.424Z,87.55
2022-12-13T23:23:37.316Z,87.81
2022-12-13T23:26:17.902Z,87.70
2022-12-13T23:29:10.594Z,87.65
2022-12-13T23:31:49.425Z,87.63
2022-12-13T23:34:22.357Z,87.55
2022-12-13T23:37:29.518Z,87.36
2022-12-13T23:40:45.387Z,88.00
2022-12-13T23:46:49.263Z,87.75
2022-12-13T23:49:23.532Z,87.80
2022-12-13T23:51:58.008Z,88.06
2022-12-13T23:54:31.416Z,88.49
